Bald Head, North Carolina
Current Conditions -  °F | °C
As of 12:15 PM on Saturday 20 Dec 2014 (Local Time) from KSUT Reporting Station
Light Rain Light Rain  
Wind Chill: 44°   Ceiling: 700
Heat Index: 46°   Visibility: 4mi
Dew Point: 45°   Wind: 6mph
Humidity: 95%   Direction: 40°NE
Pressure: 30.22"   Gusts: NA
Location:  34.0734°N, 78.0547°W
Report Text: KSUT 201715Z AUTO 04005KT 4SM -RA BKN007 BKN015 OVC043 08/07 A3022 RMK AO2 P0002 T00800073
Loading
Personal Weather Stations






























Interactive Weather Map New forecast layout! Learn more

10-Day Weather Forecast

Advertisements
Track Severe Weather on mobile